Weather at Santa Barbara Municipal Airport

Public forecast

Using degrees Fahrenheit for public forecast. Weather courtesy of forecast.io.

Current aviation weather report (METAR) for Santa Barbara Municipal Airport

Retrieved 2021/09/28 12:53 UTC (1 hour ago):

KSBA 281253Z 00000KT 10SM CLR 10/08 A2993 RMK AO2 SLP135 T01000083

Aviation forecast (TAF) for Santa Barbara Municipal Airport

Forecast is more than 6 hours old.

Retrieved 2021/09/28 06:27 UTC (7 hours ago):

TAF KSBA 280524Z 2806/2906 VRB03KT P6SM SCT023 FM281000 VRB03KT P6SM BKN015 FM281300 VRB03KT 5SM BR OVC012 FM281800 16007KT P6SM BKN025 FM282200 20008KT P6SM SCT250 FM290300 33009KT P6SM SKC